createdAt,value
2017-12-10T00:01:30.146Z,97642.66
2017-12-10T00:03:57.780Z,97652.87
2017-12-10T00:06:25.298Z,97648.30
2017-12-10T00:08:52.841Z,97640.53
2017-12-10T00:11:20.428Z,97641.58
2017-12-10T00:13:47.936Z,97635.89
2017-12-10T00:16:15.451Z,97642.23
2017-12-10T00:18:43.029Z,97641.80
2017-12-10T00:21:10.537Z,97636.16
2017-12-10T00:23:38.047Z,97635.80
2017-12-10T00:26:05.568Z,97638.91
2017-12-10T00:28:33.108Z,97636.79
2017-12-10T00:31:00.697Z,97630.39
2017-12-10T00:33:28.229Z,97630.57
2017-12-10T00:35:55.730Z,97621.85
2017-12-10T00:38:23.234Z,97617.67
2017-12-10T00:40:50.737Z,97615.50
2017-12-10T00:43:18.268Z,97598.38
2017-12-10T00:45:45.772Z,97604.33
2017-12-10T00:48:13.316Z,97596.49
2017-12-10T00:50:40.813Z,97599.16
2017-12-10T00:53:08.341Z,97593.59
2017-12-10T00:55:35.884Z,97584.57
2017-12-10T00:58:03.437Z,97587.84
2017-12-10T01:00:31.798Z,97576.71
2017-12-10T01:02:59.294Z,97567.84
2017-12-10T01:05:26.808Z,97554.42
2017-12-10T01:07:54.373Z,97550.56
2017-12-10T01:10:21.908Z,97549.41
2017-12-10T01:12:49.412Z,97541.69
2017-12-10T01:15:16.916Z,97533.08
2017-12-10T01:17:44.546Z,97531.11
2017-12-10T01:20:12.068Z,97529.91
2017-12-10T01:22:39.558Z,97519.80
2017-12-10T01:25:07.059Z,97522.38
2017-12-10T01:27:34.569Z,97508.63
2017-12-10T01:30:02.091Z,97508.27
2017-12-10T01:32:29.689Z,97507.11
2017-12-10T01:34:57.202Z,97501.78
2017-12-10T01:37:24.738Z,97487.52
2017-12-10T01:39:52.265Z,97490.36
2017-12-10T01:42:19.764Z,97476.77
2017-12-10T01:44:47.359Z,97466.34
2017-12-10T01:47:14.853Z,97463.34
2017-12-10T01:49:42.357Z,97447.73
2017-12-10T01:52:09.888Z,97452.81
2017-12-10T01:54:37.389Z,97445.88
2017-12-10T01:57:04.894Z,97444.41
2017-12-10T01:59:32.376Z,97443.66
2017-12-10T02:01:59.874Z,97435.46
2017-12-10T02:04:27.381Z,97437.73
2017-12-10T02:06:54.873Z,97434.83
2017-12-10T02:09:22.385Z,97435.11
2017-12-10T02:11:49.880Z,97423.06
2017-12-10T02:14:17.437Z,97420.86
2017-12-10T02:16:44.939Z,97413.48
2017-12-10T02:19:12.434Z,97419.34
2017-12-10T02:21:39.984Z,97416.25
2017-12-10T02:24:07.497Z,97415.17
2017-12-10T02:26:35.021Z,97406.59
2017-12-10T02:29:02.515Z,97409.35
2017-12-10T02:31:30.488Z,97401.78
2017-12-10T02:33:57.984Z,97402.50
2017-12-10T02:36:25.493Z,97389.75
2017-12-10T02:38:53.005Z,97394.94
2017-12-10T02:41:20.526Z,97387.00
2017-12-10T02:43:48.039Z,97382.06
2017-12-10T02:46:15.538Z,97378.95
2017-12-10T02:48:43.029Z,97366.81
2017-12-10T02:51:10.554Z,97357.28
2017-12-10T02:53:38.073Z,97349.57
2017-12-10T02:56:05.574Z,97344.14
2017-12-10T02:58:33.105Z,97332.81
2017-12-10T03:01:00.801Z,97332.16
2017-12-10T03:03:28.299Z,97330.39
2017-12-10T03:05:55.809Z,97326.97
2017-12-10T03:08:23.311Z,97320.14
2017-12-10T03:10:50.816Z,97316.12
2017-12-10T03:13:18.302Z,97314.36
2017-12-10T03:15:45.815Z,97306.47
2017-12-10T03:18:13.320Z,97289.75
2017-12-10T03:20:40.814Z,97286.17
2017-12-10T03:23:08.314Z,97283.39
2017-12-10T03:25:35.969Z,97275.72
2017-12-10T03:28:03.469Z,97273.34
2017-12-10T03:30:30.966Z,97272.27
2017-12-10T03:32:58.469Z,97259.56
2017-12-10T03:35:25.965Z,97260.36
2017-12-10T03:37:53.472Z,97251.39
2017-12-10T03:40:20.952Z,97255.21
2017-12-10T03:42:48.448Z,97246.01
2017-12-10T03:45:15.956Z,97233.63
2017-12-10T03:47:43.444Z,97220.24
2017-12-10T03:50:10.942Z,97216.20
2017-12-10T03:52:38.458Z,97225.11
2017-12-10T03:55:05.996Z,97220.30
2017-12-10T03:57:33.516Z,97215.83
2017-12-10T04:00:01.072Z,97208.83
2017-12-10T04:02:28.632Z,97200.80
2017-12-10T04:04:56.156Z,97196.77
2017-12-10T04:07:23.650Z,97187.41
2017-12-10T04:09:51.153Z,97178.09
2017-12-10T04:12:18.658Z,97171.42
2017-12-10T04:14:46.178Z,97167.39
2017-12-10T04:17:14.931Z,97160.43
2017-12-10T04:19:42.488Z,97158.52
2017-12-10T04:22:10.006Z,97154.61
2017-12-10T04:24:37.510Z,97146.38
2017-12-10T04:27:05.029Z,97139.74
2017-12-10T04:29:32.521Z,97138.64
2017-12-10T04:32:00.057Z,97126.87
2017-12-10T04:34:27.581Z,97127.69
2017-12-10T04:36:55.103Z,97119.41
2017-12-10T04:39:22.616Z,97108.02
2017-12-10T04:41:50.132Z,97107.91
2017-12-10T04:44:17.641Z,97096.30
2017-12-10T04:46:45.157Z,97088.83
2017-12-10T04:49:12.665Z,97083.08
2017-12-10T04:51:40.163Z,97085.84
2017-12-10T04:54:07.695Z,97075.89
2017-12-10T04:56:35.197Z,97073.80
2017-12-10T04:59:02.699Z,97052.47
2017-12-10T05:01:30.210Z,97042.56
2017-12-10T05:03:57.717Z,97042.20
2017-12-10T05:06:25.209Z,97031.50
2017-12-10T05:08:52.710Z,97025.19
2017-12-10T05:11:20.189Z,97011.44
2017-12-10T05:13:47.729Z,97004.86
2017-12-10T05:16:15.237Z,97001.19
2017-12-10T05:18:42.741Z,96998.56
2017-12-10T05:21:10.233Z,96999.80
2017-12-10T05:23:37.730Z,96991.87
2017-12-10T05:26:05.244Z,96986.37
2017-12-10T05:28:32.756Z,96979.58
2017-12-10T05:31:00.258Z,96981.41
2017-12-10T05:33:27.760Z,96973.94
2017-12-10T05:35:55.287Z,96967.30
2017-12-10T05:38:22.789Z,96974.55
2017-12-10T05:40:50.414Z,96959.54
2017-12-10T05:43:17.918Z,96952.81
2017-12-10T05:45:45.444Z,96943.95
2017-12-10T05:48:12.961Z,96932.36
2017-12-10T05:50:40.460Z,96928.19
2017-12-10T05:53:07.985Z,96919.30
2017-12-10T05:55:35.506Z,96904.08
2017-12-10T05:58:03.028Z,96893.55
2017-12-10T06:00:30.556Z,96889.84
2017-12-10T06:02:58.081Z,96892.70
2017-12-10T06:05:25.587Z,96880.77
2017-12-10T06:07:53.240Z,96883.20
2017-12-10T06:10:20.752Z,96866.70
2017-12-10T06:12:48.249Z,96857.95
2017-12-10T06:15:15.752Z,96848.21
2017-12-10T06:17:43.289Z,96846.58
2017-12-10T06:20:10.790Z,96842.34
2017-12-10T06:22:38.289Z,96836.44
2017-12-10T06:25:05.802Z,96821.45
2017-12-10T06:27:33.342Z,96820.70
2017-12-10T06:30:00.902Z,96801.20
2017-12-10T06:32:28.445Z,96782.97
2017-12-10T06:34:56.015Z,96775.27
2017-12-10T06:37:23.504Z,96768.07
2017-12-10T06:39:51.004Z,96755.98
2017-12-10T06:42:18.523Z,96748.43
2017-12-10T06:44:46.240Z,96741.47
2017-12-10T06:47:13.756Z,96729.06
2017-12-10T06:49:41.256Z,96713.09
2017-12-10T06:52:08.761Z,96696.36
2017-12-10T06:54:36.274Z,96676.48
2017-12-10T06:57:03.783Z,96657.48
2017-12-10T06:59:31.302Z,96651.24
2017-12-10T07:01:58.830Z,96626.63
2017-12-10T07:04:26.351Z,96622.03
2017-12-10T07:06:53.858Z,96607.23
2017-12-10T07:09:21.481Z,96599.89
2017-12-10T07:11:48.986Z,96589.30
2017-12-10T07:14:16.501Z,96569.50
2017-12-10T07:16:44.039Z,96570.96
2017-12-10T07:19:11.542Z,96555.39
2017-12-10T07:21:39.051Z,96559.27
2017-12-10T07:24:06.557Z,96567.02
2017-12-10T07:26:34.065Z,96556.56
2017-12-10T07:29:01.581Z,96554.84
2017-12-10T07:31:29.121Z,96539.78
2017-12-10T07:33:56.962Z,96534.91
2017-12-10T07:36:24.488Z,96520.08
2017-12-10T07:38:52.000Z,96512.90
2017-12-10T07:41:19.521Z,96514.41
2017-12-10T07:43:47.049Z,96508.02
2017-12-10T07:46:14.569Z,96521.30
2017-12-10T07:48:42.123Z,96498.66
2017-12-10T07:51:09.686Z,96487.84
2017-12-10T07:53:37.201Z,96485.78
2017-12-10T07:56:04.878Z,96476.27
2017-12-10T07:58:33.194Z,96456.07
2017-12-10T08:01:00.739Z,96454.44
2017-12-10T08:03:28.261Z,96439.14
2017-12-10T08:05:55.800Z,96424.88
2017-12-10T08:08:23.289Z,96408.95
2017-12-10T08:10:50.808Z,96404.53
2017-12-10T08:13:18.408Z,96381.48
2017-12-10T08:15:45.914Z,96380.55
2017-12-10T08:18:13.414Z,96388.09
2017-12-10T08:20:40.909Z,96366.64
2017-12-10T08:23:08.420Z,96369.17
2017-12-10T08:25:35.995Z,96341.52
2017-12-10T08:28:03.516Z,96332.51
2017-12-10T08:30:31.053Z,96327.39
2017-12-10T08:32:58.546Z,96308.23
2017-12-10T08:35:26.114Z,96299.34
2017-12-10T08:37:53.618Z,96296.52
2017-12-10T08:40:21.119Z,96284.91
2017-12-10T08:42:48.745Z,96286.00
2017-12-10T08:45:16.282Z,96284.84
2017-12-10T08:47:43.878Z,96261.40
2017-12-10T08:50:11.679Z,96263.44
2017-12-10T08:52:39.251Z,96266.16
2017-12-10T08:55:06.786Z,96253.83
2017-12-10T08:57:34.302Z,96237.98
2017-12-10T09:00:01.817Z,96230.41
2017-12-10T09:02:29.326Z,96228.37
2017-12-10T09:04:56.822Z,96213.11
2017-12-10T09:07:24.355Z,96197.50
2017-12-10T09:09:51.873Z,96189.81
2017-12-10T09:12:19.452Z,96188.37
2017-12-10T09:14:47.088Z,96184.91
2017-12-10T09:17:14.634Z,96170.99
2017-12-10T09:19:42.128Z,96164.34
2017-12-10T09:22:09.742Z,96137.55
2017-12-10T09:24:37.266Z,96133.47
2017-12-10T09:27:04.790Z,96125.25
2017-12-10T09:29:32.321Z,96120.48
2017-12-10T09:31:59.852Z,96111.91
2017-12-10T09:34:27.370Z,96097.72
2017-12-10T09:43:41.240Z,96049.58
2017-12-10T09:46:08.778Z,96033.92
2017-12-10T09:48:36.276Z,96020.39
2017-12-10T09:51:03.801Z,96021.19
2017-12-10T09:53:31.318Z,96012.03
2017-12-10T09:55:58.825Z,95999.87
2017-12-10T09:58:26.341Z,95981.33
2017-12-10T10:00:53.864Z,95977.84
2017-12-10T10:03:21.402Z,95964.26
2017-12-10T10:05:48.888Z,95948.53
2017-12-10T10:08:16.401Z,95925.96
2017-12-10T10:10:44.341Z,95913.27
2017-12-10T10:13:11.857Z,95895.66
2017-12-10T10:15:39.365Z,95875.00
2017-12-10T10:18:06.892Z,95863.72
2017-12-10T10:20:34.506Z,95856.67
2017-12-10T10:23:02.026Z,95845.38
2017-12-10T10:25:29.668Z,95818.43
2017-12-10T10:27:57.178Z,95806.63
2017-12-10T10:30:24.719Z,95785.89
2017-12-10T10:32:53.193Z,95778.17
2017-12-10T10:35:20.746Z,95764.50
2017-12-10T10:37:48.324Z,95751.41
2017-12-10T10:40:15.845Z,95733.41
2017-12-10T10:42:43.383Z,95720.04
2017-12-10T10:45:10.874Z,95712.34
2017-12-10T10:47:38.442Z,95692.66
2017-12-10T10:50:06.000Z,95672.11
2017-12-10T10:52:33.621Z,95653.84
2017-12-10T10:55:01.491Z,95636.24
2017-12-10T10:57:29.034Z,95621.20
2017-12-10T10:59:56.545Z,95606.89
2017-12-10T11:02:24.155Z,95593.47
2017-12-10T11:04:51.679Z,95579.09
2017-12-10T11:07:19.260Z,95575.91
2017-12-10T11:09:46.959Z,95568.62
2017-12-10T11:12:14.466Z,95550.34
2017-12-10T11:14:42.001Z,95537.63
2017-12-10T11:17:09.537Z,95513.15
2017-12-10T11:19:37.046Z,95493.93
2017-12-10T11:22:04.576Z,95475.83
2017-12-10T11:24:32.114Z,95467.37
2017-12-10T11:26:59.657Z,95443.66
2017-12-10T11:29:27.186Z,95433.03
2017-12-10T11:31:54.700Z,95410.92
2017-12-10T11:34:22.210Z,95392.66
2017-12-10T11:36:49.733Z,95395.48
2017-12-10T11:39:17.266Z,95385.22
2017-12-10T11:41:44.775Z,95374.89
2017-12-10T11:44:12.316Z,95368.95
2017-12-10T11:46:39.824Z,95363.78
2017-12-10T11:49:07.467Z,95348.09
2017-12-10T11:51:34.974Z,95351.18
2017-12-10T11:54:06.181Z,95345.88
2017-12-10T11:56:33.687Z,95334.76
2017-12-10T11:59:04.743Z,95318.13
2017-12-10T12:01:32.258Z,95300.09
2017-12-10T12:03:59.757Z,95306.98
2017-12-10T12:06:27.622Z,95296.44
2017-12-10T12:08:55.230Z,95278.02
2017-12-10T12:11:22.721Z,95285.03
2017-12-10T12:13:50.216Z,95271.09
2017-12-10T12:16:17.741Z,95264.11
2017-12-10T12:18:46.438Z,95250.14
2017-12-10T12:21:14.040Z,95242.84
2017-12-10T12:23:41.562Z,95241.88
2017-12-10T12:26:09.087Z,95227.91
2017-12-10T12:28:36.622Z,95235.61
2017-12-10T12:31:04.132Z,95225.34
2017-12-10T12:33:31.683Z,95215.67
2017-12-10T12:35:59.282Z,95205.61
2017-12-10T12:38:28.061Z,95206.56
2017-12-10T12:40:55.617Z,95183.99
2017-12-10T12:43:24.619Z,95175.19
2017-12-10T12:45:52.229Z,95169.66
2017-12-10T12:48:20.036Z,95182.22
2017-12-10T12:50:48.001Z,95161.28
2017-12-10T12:53:16.735Z,95161.60
2017-12-10T12:55:44.270Z,95153.84
2017-12-10T12:58:12.237Z,95148.84
2017-12-10T13:00:39.865Z,95144.30
2017-12-10T13:03:07.498Z,95150.64
2017-12-10T13:05:34.991Z,95143.29
2017-12-10T13:08:02.488Z,95145.46
2017-12-10T13:10:30.010Z,95137.64
2017-12-10T13:12:57.505Z,95141.70
2017-12-10T13:15:25.030Z,95149.16
2017-12-10T13:17:52.543Z,95145.84
2017-12-10T13:20:20.066Z,95133.18
2017-12-10T13:22:47.572Z,95144.84
2017-12-10T13:25:15.069Z,95145.38
2017-12-10T13:27:42.573Z,95130.59
2017-12-10T13:30:10.101Z,95117.50
2017-12-10T13:32:37.640Z,95115.77
2017-12-10T13:35:05.145Z,95132.30
2017-12-10T13:37:32.637Z,95125.14
2017-12-10T13:40:00.144Z,95123.56
2017-12-10T13:42:27.971Z,95117.44
2017-12-10T13:44:55.497Z,95104.41
2017-12-10T13:47:23.018Z,95101.22
2017-12-10T13:49:50.693Z,95111.03
2017-12-10T13:52:18.316Z,95095.39
2017-12-10T13:54:45.877Z,95097.41
2017-12-10T13:57:13.368Z,95090.41
2017-12-10T13:59:40.888Z,95101.98
2017-12-10T14:02:08.379Z,95107.94
2017-12-10T14:04:35.881Z,95105.55
2017-12-10T14:07:03.377Z,95111.30
2017-12-10T14:09:30.901Z,95105.98
2017-12-10T14:11:58.425Z,95110.84
2017-12-10T14:14:26.033Z,95113.95
2017-12-10T14:16:53.534Z,95126.73
2017-12-10T14:19:21.661Z,95144.66
2017-12-10T14:21:49.188Z,95138.55
2017-12-10T14:24:16.737Z,95154.86
2017-12-10T14:26:44.303Z,95153.30
2017-12-10T14:29:11.765Z,95151.14
2017-12-10T14:31:39.399Z,95149.38
2017-12-10T14:34:06.895Z,95145.42
2017-12-10T14:36:34.392Z,95156.66
2017-12-10T14:39:01.971Z,95154.13
2017-12-10T14:41:29.461Z,95147.81
2017-12-10T14:43:56.980Z,95169.07
2017-12-10T14:46:24.501Z,95167.26
2017-12-10T14:48:52.018Z,95156.52
2017-12-10T14:51:19.557Z,95172.98
2017-12-10T14:53:47.079Z,95170.96
2017-12-10T14:56:14.614Z,95176.95
2017-12-10T14:58:42.130Z,95165.69
2017-12-10T15:01:09.660Z,95164.04
2017-12-10T15:03:37.363Z,95166.48
2017-12-10T15:06:04.964Z,95177.88
2017-12-10T15:08:32.481Z,95183.34
2017-12-10T15:11:00.007Z,95179.06
2017-12-10T15:13:27.567Z,95186.05
2017-12-10T15:15:55.203Z,95179.92
2017-12-10T15:18:22.771Z,95187.54
2017-12-10T15:20:50.288Z,95183.64
2017-12-10T15:23:17.808Z,95175.63
2017-12-10T15:25:45.353Z,95180.09
2017-12-10T15:28:12.868Z,95184.71
2017-12-10T15:30:40.374Z,95182.25
2017-12-10T15:33:07.873Z,95193.06
2017-12-10T15:35:35.436Z,95200.38
2017-12-10T15:38:03.190Z,95210.79
2017-12-10T15:40:30.801Z,95202.95
2017-12-10T15:42:58.341Z,95205.53
2017-12-10T15:45:25.838Z,95216.64
2017-12-10T15:47:53.342Z,95208.75
2017-12-10T15:50:20.883Z,95217.25
2017-12-10T15:52:48.404Z,95225.20
2017-12-10T15:55:15.942Z,95232.89
2017-12-10T15:57:43.465Z,95236.04
2017-12-10T16:00:10.983Z,95235.29
2017-12-10T16:02:38.511Z,95226.81
2017-12-10T16:05:06.027Z,95220.08
2017-12-10T16:07:33.593Z,95225.51
2017-12-10T16:10:01.226Z,95222.19
2017-12-10T16:12:28.741Z,95237.55
2017-12-10T16:14:56.242Z,95234.61
2017-12-10T16:17:24.796Z,95233.76
2017-12-10T16:19:52.342Z,95247.77
2017-12-10T16:22:19.872Z,95250.89
2017-12-10T16:24:47.369Z,95248.16
2017-12-10T16:27:14.860Z,95238.98
2017-12-10T16:29:42.375Z,95241.90
2017-12-10T16:32:09.888Z,95241.71
2017-12-10T16:34:37.433Z,95240.64
2017-12-10T16:37:04.948Z,95243.37
2017-12-10T16:39:32.448Z,95253.62
2017-12-10T16:41:59.977Z,95251.55
2017-12-10T16:44:27.520Z,95252.35
2017-12-10T16:46:55.054Z,95259.59
2017-12-10T16:49:22.669Z,95265.52
2017-12-10T16:51:50.245Z,95268.45
2017-12-10T16:54:17.750Z,95273.53
2017-12-10T16:56:45.394Z,95274.71
2017-12-10T16:59:12.930Z,95268.92
2017-12-10T17:01:40.454Z,95276.63
2017-12-10T17:04:07.991Z,95278.36
2017-12-10T17:06:35.518Z,95287.23
2017-12-10T17:09:03.036Z,95280.25
2017-12-10T17:11:30.554Z,95269.46
2017-12-10T17:13:58.072Z,95280.19
2017-12-10T17:16:25.601Z,95280.57
2017-12-10T17:18:53.097Z,95269.45
2017-12-10T17:21:20.690Z,95273.38
2017-12-10T17:23:48.222Z,95273.47
2017-12-10T17:26:15.749Z,95270.86
2017-12-10T17:28:43.255Z,95279.28
2017-12-10T17:31:10.815Z,95275.99
2017-12-10T17:33:38.332Z,95274.54
2017-12-10T17:36:05.822Z,95259.81
2017-12-10T17:38:33.329Z,95265.55
2017-12-10T17:41:00.847Z,95263.44
2017-12-10T17:43:28.362Z,95257.03
2017-12-10T17:45:55.853Z,95256.52
2017-12-10T17:48:23.380Z,95254.88
2017-12-10T17:50:50.929Z,95262.61
2017-12-10T17:53:18.498Z,95275.30
2017-12-10T17:55:46.079Z,95273.30
2017-12-10T17:58:13.587Z,95263.55
2017-12-10T18:00:41.085Z,95270.98
2017-12-10T18:03:08.590Z,95275.87
2017-12-10T18:05:36.090Z,95270.41
2017-12-10T18:08:03.614Z,95266.98
2017-12-10T18:10:31.128Z,95259.56
2017-12-10T18:12:58.671Z,95266.20
2017-12-10T18:15:26.174Z,95263.08
2017-12-10T18:17:53.673Z,95261.06
2017-12-10T18:20:21.206Z,95268.27
2017-12-10T18:22:48.690Z,95272.30
2017-12-10T18:25:16.197Z,95268.11
2017-12-10T18:27:43.696Z,95267.71
2017-12-10T18:30:11.269Z,95266.27
2017-12-10T18:32:38.786Z,95265.31
2017-12-10T18:35:06.290Z,95276.97
2017-12-10T18:37:33.786Z,95275.19
2017-12-10T18:40:01.336Z,95272.85
2017-12-10T18:42:28.855Z,95285.13
2017-12-10T18:44:56.352Z,95282.66
2017-12-10T18:47:23.878Z,95279.67
2017-12-10T18:49:51.398Z,95287.66
2017-12-10T18:52:18.975Z,95281.41
2017-12-10T18:54:46.922Z,95292.91
2017-12-10T18:57:14.544Z,95268.26
2017-12-10T18:59:42.042Z,95268.55
2017-12-10T19:02:09.601Z,95267.37
2017-12-10T19:04:37.133Z,95255.27
2017-12-10T19:07:04.658Z,95254.25
2017-12-10T19:09:32.202Z,95260.99
2017-12-10T19:11:59.737Z,95251.63
2017-12-10T19:14:27.300Z,95247.86
2017-12-10T19:16:54.783Z,95253.89
2017-12-10T19:19:22.331Z,95269.88
2017-12-10T19:21:49.841Z,95263.53
2017-12-10T19:24:17.378Z,95271.55
2017-12-10T19:26:44.886Z,95259.44
2017-12-10T19:29:12.450Z,95242.85
2017-12-10T19:31:39.961Z,95229.70
2017-12-10T19:34:07.467Z,95230.72
2017-12-10T19:36:34.997Z,95218.80
2017-12-10T19:39:02.505Z,95234.46
2017-12-10T19:41:30.006Z,95230.28
2017-12-10T19:43:57.522Z,95227.42
2017-12-10T19:46:25.119Z,95238.06
2017-12-10T19:48:52.657Z,95233.28
2017-12-10T19:51:20.284Z,95220.92
2017-12-10T19:53:47.841Z,95204.11
2017-12-10T19:56:15.392Z,95204.68
2017-12-10T19:58:42.971Z,95202.57
2017-12-10T20:01:10.558Z,95205.53
2017-12-10T20:03:38.100Z,95217.45
2017-12-10T20:06:05.655Z,95230.64
2017-12-10T20:08:33.201Z,95226.42
2017-12-10T20:11:00.742Z,95213.04
2017-12-10T20:13:28.299Z,95201.91
2017-12-10T20:15:55.837Z,95186.86
2017-12-10T20:18:23.339Z,95200.52
2017-12-10T20:20:50.873Z,95199.49
2017-12-10T20:23:18.442Z,95193.73
2017-12-10T20:25:45.953Z,95191.91
2017-12-10T20:28:13.484Z,95203.08
2017-12-10T20:30:41.092Z,95211.62
2017-12-10T20:33:08.713Z,95204.23
2017-12-10T20:35:36.265Z,95217.98
2017-12-10T20:38:03.816Z,95224.28
2017-12-10T20:40:31.395Z,95219.33
2017-12-10T20:42:58.978Z,95216.12
2017-12-10T20:45:27.065Z,95212.39
2017-12-10T20:47:54.565Z,95223.80
2017-12-10T20:50:22.090Z,95218.94
2017-12-10T20:52:49.620Z,95218.34
2017-12-10T20:55:17.189Z,95218.48
2017-12-10T20:57:44.790Z,95212.49
2017-12-10T21:00:12.388Z,95225.72
2017-12-10T21:02:39.989Z,95225.48
2017-12-10T21:05:07.585Z,95212.58
2017-12-10T21:07:35.101Z,95214.72
2017-12-10T21:10:02.742Z,95223.50
2017-12-10T21:12:30.282Z,95226.34
2017-12-10T21:14:57.863Z,95214.73
2017-12-10T21:17:25.467Z,95213.38
2017-12-10T21:19:52.968Z,95216.89
2017-12-10T21:22:20.478Z,95223.73
2017-12-10T21:24:48.046Z,95219.70
2017-12-10T21:27:15.543Z,95228.58
2017-12-10T21:29:43.034Z,95226.41
2017-12-10T21:32:10.542Z,95217.73
2017-12-10T21:34:38.045Z,95211.72
2017-12-10T21:37:05.567Z,95214.02
2017-12-10T21:39:33.951Z,95201.97
2017-12-10T21:42:01.472Z,95221.72
2017-12-10T21:44:29.015Z,95210.39
2017-12-10T21:46:56.534Z,95210.45
2017-12-10T21:49:24.900Z,95224.36
2017-12-10T21:51:52.396Z,95221.00
2017-12-10T21:54:19.965Z,95225.16
2017-12-10T21:56:47.482Z,95228.59
2017-12-10T21:59:14.999Z,95243.55
2017-12-10T22:01:43.451Z,95229.25
2017-12-10T22:04:10.982Z,95230.05
2017-12-10T22:06:38.499Z,95218.67
2017-12-10T22:09:06.012Z,95236.84
2017-12-10T22:11:33.512Z,95242.02
2017-12-10T22:14:01.039Z,95248.89
2017-12-10T22:16:28.632Z,95250.30
2017-12-10T22:18:56.228Z,95259.00
2017-12-10T22:21:23.752Z,95252.55
2017-12-10T22:23:51.770Z,95254.17
2017-12-10T22:26:19.321Z,95261.31
2017-12-10T22:28:46.820Z,95254.19
2017-12-10T22:31:14.347Z,95253.86
2017-12-10T22:33:41.857Z,95252.05
2017-12-10T22:36:09.362Z,95259.90
2017-12-10T22:38:36.895Z,95252.83
2017-12-10T22:41:04.400Z,95248.56
2017-12-10T22:43:31.911Z,95245.84
2017-12-10T22:45:59.419Z,95248.05
2017-12-10T22:48:26.946Z,95248.25
2017-12-10T22:50:54.495Z,95247.23
2017-12-10T22:53:21.976Z,95242.17
2017-12-10T22:55:49.473Z,95224.28
2017-12-10T22:58:16.956Z,95219.63
2017-12-10T23:00:44.584Z,95206.56
2017-12-10T23:03:12.094Z,95213.23
2017-12-10T23:05:39.617Z,95214.73
2017-12-10T23:08:07.128Z,95208.73
2017-12-10T23:10:34.618Z,95208.17
2017-12-10T23:13:02.132Z,95218.56
2017-12-10T23:15:29.668Z,95214.73
2017-12-10T23:17:57.190Z,95211.30
2017-12-10T23:20:26.692Z,95215.09
2017-12-10T23:22:54.211Z,95226.66
2017-12-10T23:25:21.744Z,95203.05
2017-12-10T23:27:49.252Z,95193.85
2017-12-10T23:30:16.796Z,95199.05
2017-12-10T23:32:44.298Z,95196.50
2017-12-10T23:35:11.788Z,95210.90
2017-12-10T23:37:39.372Z,95220.18
2017-12-10T23:40:06.870Z,95223.77
2017-12-10T23:42:34.372Z,95232.38
2017-12-10T23:45:01.886Z,95236.20
2017-12-10T23:47:29.373Z,95240.17
2017-12-10T23:49:56.891Z,95253.28
2017-12-10T23:52:24.386Z,95256.97
2017-12-10T23:54:51.927Z,95262.92
2017-12-10T23:57:19.437Z,95256.82
2017-12-10T23:59:46.918Z,95259.58
